Richmond, Virginia
Current Conditions -  °F | °C
As of 6:54 PM on Friday 31 Oct 2014 (Local Time) from KRIC Reporting Station
Broken Clouds Broken Clouds  
Wind Chill: 11°   Ceiling: 20000
Heat Index: 11°   Visibility: 10mi
Dew Point:   Wind: 5mph
Humidity: 59%   Direction: 20°NNE
Pressure: 29.83"   Gusts: NA
Location:  37.54°N, 77.43°W
Report Text: KRIC 312254Z 02004KT 10SM SCT060 BKN200 11/03 A2983 RMK AO2 SLP106 T01110033
Loading
Personal Weather Stations






























Interactive Weather Map
Tropical Storm Tracking
New forecast layout! Learn more

10-Day Weather Forecast

Advertisements
Track Severe Weather on mobile